Time;durP1;ratioP1;P1;durP2;ratioP2;P2;SDS_P1;SDS_P2;PMS_P1;PMS_P2;Temp;Humidity;BMP_temperature;BMP_pressure;BME280_temperature;BME280_humidity;BME280_pressure;Samples;Min_cycle;Max_cycle;Signal;HPM_P1;HPM_P2
2021/11/11 00:01:49;;;;;;;26.60;13.13;;;;;;;;;;5013258;28;20497;-71
2021/11/11 00:04:19;;;;;;;34.85;15.90;;;;;;;;;;5012184;28;20077;-70
2021/11/11 00:06:45;;;;;;;29.13;15.05;;;;;;;;;;5013204;28;20114;-70
2021/11/11 00:09:11;;;;;;;29.23;15.23;;;;;;;;;;4993485;28;20022;-70
2021/11/11 00:11:37;;;;;;;30.45;15.05;;;;;;;;;;5013606;28;20469;-70
2021/11/11 00:14:03;;;;;;;34.00;15.93;;;;;;;;;;4985215;28;20105;-70
2021/11/11 00:16:29;;;;;;;36.72;17.33;;;;;;;;;;4994829;28;20479;-70
2021/11/11 00:18:55;;;;;;;36.80;16.13;;;;;;;;;;5013318;28;20022;-71
2021/11/11 00:21:21;;;;;;;35.83;16.55;;;;;;;;;;5003493;28;20061;-71
2021/11/11 00:23:47;;;;;;;40.20;17.05;;;;;;;;;;5012944;28;20038;-71
2021/11/11 00:26:13;;;;;;;36.97;16.67;;;;;;;;;;5010731;28;20044;-71
2021/11/11 00:28:39;;;;;;;36.45;17.83;;;;;;;;;;5013426;28;20113;-71
2021/11/11 00:31:05;;;;;;;38.67;17.77;;;;;;;;;;4978645;28;20494;-71
2021/11/11 00:33:31;;;;;;;37.40;18.17;;;;;;;;;;4991595;28;20030;-71
2021/11/11 00:35:57;;;;;;;39.53;19.45;;;;;;;;;;5009953;28;20079;-71
2021/11/11 00:38:24;;;;;;;41.53;19.58;;;;;;;;;;4993560;28;20013;-70
2021/11/11 00:40:50;;;;;;;37.38;19.67;;;;;;;;;;4999161;28;20038;-71
2021/11/11 00:43:16;;;;;;;37.17;20.95;;;;;;;;;;5003265;28;20030;-71
2021/11/11 00:45:42;;;;;;;40.20;20.17;;;;;;;;;;5000950;28;20109;-70
2021/11/11 00:48:09;;;;;;;42.55;21.98;;;;;;;;;;4994522;28;20455;-71
2021/11/11 00:50:35;;;;;;;42.33;21.02;;;;;;;;;;5001122;28;20422;-70
2021/11/11 00:53:02;;;;;;;49.15;24.02;;;;;;;;;;5009782;28;20366;-70
2021/11/11 00:55:28;;;;;;;53.15;25.25;;;;;;;;;;4998669;28;20038;-70
2021/11/11 00:57:54;;;;;;;42.50;23.77;;;;;;;;;;5009240;28;20037;-70
2021/11/11 01:00:21;;;;;;;46.78;23.83;;;;;;;;;;5001902;28;20072;-70
2021/11/11 01:02:48;;;;;;;52.17;24.55;;;;;;;;;;4985753;28;20084;-70
2021/11/11 01:05:15;;;;;;;51.65;24.15;;;;;;;;;;5012228;28;20022;-70
2021/11/11 01:07:41;;;;;;;54.33;26.05;;;;;;;;;;4986478;28;20523;-70
2021/11/11 01:10:12;;;;;;;50.15;25.60;;;;;;;;;;4991452;28;20041;-71
2021/11/11 01:12:38;;;;;;;45.13;23.05;;;;;;;;;;4984138;28;20035;-71
2021/11/11 01:15:05;;;;;;;52.38;25.77;;;;;;;;;;5001013;28;20030;-71
2021/11/11 01:17:31;;;;;;;47.40;24.10;;;;;;;;;;5012021;28;20029;-71
2021/11/11 01:19:57;;;;;;;51.88;25.33;;;;;;;;;;5008217;28;20034;-70
2021/11/11 01:22:24;;;;;;;50.83;24.65;;;;;;;;;;5006494;28;20026;-70
2021/11/11 01:24:50;;;;;;;48.03;24.08;;;;;;;;;;5007487;28;20065;-70
2021/11/11 01:27:16;;;;;;;41.25;22.33;;;;;;;;;;5009318;28;20022;-70
2021/11/11 01:29:42;;;;;;;45.42;23.38;;;;;;;;;;5004091;28;20096;-71
2021/11/11 01:32:08;;;;;;;47.92;22.20;;;;;;;;;;5004981;28;20056;-71
2021/11/11 01:34:35;;;;;;;50.50;24.00;;;;;;;;;;4987601;28;20133;-70
2021/11/11 01:37:01;;;;;;;46.28;22.92;;;;;;;;;;4985619;28;20065;-70
2021/11/11 01:39:26;;;;;;;37.65;19.25;;;;;;;;;;4987141;28;20435;-70
2021/11/11 01:41:53;;;;;;;43.33;20.58;;;;;;;;;;5002798;28;20034;-70
2021/11/11 01:44:19;;;;;;;43.35;22.23;;;;;;;;;;5004663;28;20076;-70
2021/11/11 01:46:45;;;;;;;43.95;19.55;;;;;;;;;;5006106;28;20019;-70
2021/11/11 01:49:13;;;;;;;42.40;19.98;;;;;;;;;;4993341;28;20026;-70
2021/11/11 01:51:39;;;;;;;36.65;19.98;;;;;;;;;;5011502;28;20022;-70
2021/11/11 01:54:06;;;;;;;36.90;18.35;;;;;;;;;;5002148;28;20037;-70
2021/11/11 01:56:32;;;;;;;32.25;17.58;;;;;;;;;;4998821;28;20026;-70
2021/11/11 01:58:58;;;;;;;30.17;15.88;;;;;;;;;;5027932;23;20065;-73
2021/11/11 02:01:24;;;;;;;37.67;16.95;;;;;;;;;;4992196;28;20529;-74
2021/11/11 02:03:52;;;;;;;35.28;17.45;;;;;;;;;;5008615;28;20421;-74
2021/11/11 02:06:18;;;;;;;36.13;16.65;;;;;;;;;;5010931;28;20063;-74
2021/11/11 02:08:44;;;;;;;32.40;15.30;;;;;;;;;;5003018;28;20034;-75
2021/11/11 02:11:10;;;;;;;35.03;16.00;;;;;;;;;;5008267;28;20036;-74
2021/11/11 02:13:36;;;;;;;29.60;15.38;;;;;;;;;;5002631;28;20113;-74
2021/11/11 02:16:02;;;;;;;37.35;17.00;;;;;;;;;;5002101;28;20022;-74
2021/11/11 02:18:28;;;;;;;36.05;17.20;;;;;;;;;;5006270;28;20041;-74
2021/11/11 02:20:54;;;;;;;35.65;16.80;;;;;;;;;;5004427;28;20068;-74
2021/11/11 02:23:20;;;;;;;40.30;17.05;;;;;;;;;;5009435;28;20384;-74
2021/11/11 02:25:47;;;;;;;32.85;15.93;;;;;;;;;;5003172;28;20026;-74
2021/11/11 02:28:15;;;;;;;32.92;16.80;;;;;;;;;;5001234;28;20105;-74
2021/11/11 02:30:43;;;;;;;36.05;16.52;;;;;;;;;;5003011;28;20030;-74
2021/11/11 02:33:13;;;;;;;37.20;15.85;;;;;;;;;;5002499;28;20486;-74
2021/11/11 02:35:40;;;;;;;35.63;15.77;;;;;;;;;;5005357;28;20030;-75
2021/11/11 02:38:07;;;;;;;33.03;15.45;;;;;;;;;;5004212;28;20024;-74
2021/11/11 02:40:33;;;;;;;34.58;16.17;;;;;;;;;;4998136;28;20034;-74
2021/11/11 02:42:59;;;;;;;34.25;15.15;;;;;;;;;;4995754;28;20023;-74
2021/11/11 02:45:29;;;;;;;30.52;15.95;;;;;;;;;;5008497;28;20112;-74
2021/11/11 02:47:56;;;;;;;33.28;14.88;;;;;;;;;;4996891;28;20030;-75
2021/11/11 02:50:22;;;;;;;35.85;14.27;;;;;;;;;;5001135;28;20038;-74
2021/11/11 02:52:50;;;;;;;32.75;15.40;;;;;;;;;;5003787;28;20419;-74
2021/11/11 02:55:16;;;;;;;33.45;15.18;;;;;;;;;;5006820;28;20029;-74
2021/11/11 02:57:43;;;;;;;33.35;14.35;;;;;;;;;;4998620;28;20469;-74
2021/11/11 03:00:35;;;;;;;34.42;14.98;;;;;;;;;;5001183;28;20034;-74
2021/11/11 03:03:01;;;;;;;28.23;15.18;;;;;;;;;;5001015;28;20041;-74
2021/11/11 03:05:29;;;;;;;34.50;14.63;;;;;;;;;;5018711;28;20039;-74
2021/11/11 03:07:55;;;;;;;27.83;13.30;;;;;;;;;;5004166;28;20044;-74
2021/11/11 03:10:22;;;;;;;34.78;13.68;;;;;;;;;;5003994;28;20029;-74
2021/11/11 03:12:50;;;;;;;29.08;13.23;;;;;;;;;;5008522;28;20125;-74
2021/11/11 03:15:17;;;;;;;30.48;13.63;;;;;;;;;;4991742;28;20408;-74
2021/11/11 03:17:43;;;;;;;25.60;12.00;;;;;;;;;;5000886;28;20442;-74
2021/11/11 03:20:10;;;;;;;29.60;12.95;;;;;;;;;;4996239;28;20113;-74
2021/11/11 03:22:36;;;;;;;29.83;13.82;;;;;;;;;;5006665;28;20471;-74
2021/11/11 03:25:02;;;;;;;32.13;15.30;;;;;;;;;;4993183;28;20444;-74
2021/11/11 03:27:28;;;;;;;26.23;13.18;;;;;;;;;;5004879;28;20025;-74
2021/11/11 03:29:55;;;;;;;28.73;13.55;;;;;;;;;;5000356;28;20421;-74
2021/11/11 03:32:21;;;;;;;30.40;14.32;;;;;;;;;;5010300;28;20060;-74
2021/11/11 03:34:47;;;;;;;30.02;12.70;;;;;;;;;;5002417;28;20070;-74
2021/11/11 03:37:14;;;;;;;39.20;14.07;;;;;;;;;;4995093;28;20034;-74
2021/11/11 03:39:40;;;;;;;30.25;13.57;;;;;;;;;;5008335;28;20034;-74
2021/11/11 03:42:07;;;;;;;35.80;13.70;;;;;;;;;;5009619;28;20022;-74
2021/11/11 03:44:33;;;;;;;31.98;15.00;;;;;;;;;;5004008;28;20034;-74
2021/11/11 03:47:00;;;;;;;34.03;14.43;;;;;;;;;;5002164;28;20483;-74
2021/11/11 03:49:26;;;;;;;32.17;14.43;;;;;;;;;;5004527;28;20018;-74
2021/11/11 03:51:54;;;;;;;32.20;14.38;;;;;;;;;;5008083;28;20026;-74
2021/11/11 03:54:22;;;;;;;35.67;13.68;;;;;;;;;;5001881;28;20110;-74
2021/11/11 03:56:49;;;;;;;32.25;14.95;;;;;;;;;;4990309;28;20018;-75
2021/11/11 03:59:16;;;;;;;30.85;14.27;;;;;;;;;;5007959;28;20372;-74
2021/11/11 04:01:42;;;;;;;31.42;14.43;;;;;;;;;;4997893;28;20037;-74
2021/11/11 04:04:08;;;;;;;33.13;14.02;;;;;;;;;;5008742;28;20109;-74
2021/11/11 04:06:34;;;;;;;33.72;14.65;;;;;;;;;;5001196;28;20184;-74
2021/11/11 04:09:01;;;;;;;34.80;15.23;;;;;;;;;;5011732;28;20091;-74
2021/11/11 04:11:27;;;;;;;33.95;14.05;;;;;;;;;;5007249;28;20041;-74
2021/11/11 04:13:54;;;;;;;37.95;15.02;;;;;;;;;;5000071;28;20026;-74
2021/11/11 04:16:20;;;;;;;30.73;14.25;;;;;;;;;;5005307;28;20058;-74
2021/11/11 04:18:46;;;;;;;35.70;13.50;;;;;;;;;;5016536;28;20016;-74
2021/11/11 04:21:12;;;;;;;30.90;14.15;;;;;;;;;;5007637;28;20045;-74
2021/11/11 04:23:38;;;;;;;32.92;14.57;;;;;;;;;;5012773;28;20026;-74
2021/11/11 04:28:32;;;;;;;32.60;14.15;;;;;;;;;;5001481;28;20038;-74
2021/11/11 04:31:03;;;;;;;30.33;13.77;;;;;;;;;;5005635;28;20108;-74
2021/11/11 04:33:29;;;;;;;33.45;14.32;;;;;;;;;;4997575;28;20026;-74
2021/11/11 04:36:00;;;;;;;30.40;14.45;;;;;;;;;;5008831;28;20072;-74
2021/11/11 04:41:36;;;;;;;31.95;14.20;;;;;;;;;;5009425;28;20080;-74
2021/11/11 05:00:45;;;;;;;35.85;15.82;;;;;;;;;;5002330;28;20047;-74
2021/11/11 05:05:14;;;;;;;33.95;15.02;;;;;;;;;;5009324;28;20168;-74
2021/11/11 05:07:40;;;;;;;32.70;13.60;;;;;;;;;;5005925;28;20506;-74
2021/11/11 05:10:06;;;;;;;33.50;14.75;;;;;;;;;;5010455;28;20158;-74
2021/11/11 05:12:32;;;;;;;27.60;13.02;;;;;;;;;;5005014;28;20074;-74
2021/11/11 05:14:58;;;;;;;34.88;15.57;;;;;;;;;;4994516;28;20050;-74
2021/11/11 05:17:24;;;;;;;37.40;14.88;;;;;;;;;;5010220;28;20472;-73
2021/11/11 05:19:51;;;;;;;27.10;14.63;;;;;;;;;;5009758;28;20032;-74
2021/11/11 05:22:17;;;;;;;31.38;14.85;;;;;;;;;;5000485;28;20150;-74
2021/11/11 05:24:43;;;;;;;36.97;15.50;;;;;;;;;;5006236;28;20277;-74
2021/11/11 05:27:11;;;;;;;32.03;14.25;;;;;;;;;;5002345;28;20103;-74
2021/11/11 05:29:37;;;;;;;37.65;15.23;;;;;;;;;;5002921;28;20021;-74
2021/11/11 05:32:03;;;;;;;37.53;16.40;;;;;;;;;;5009464;28;20068;-74
2021/11/11 05:34:29;;;;;;;32.17;14.52;;;;;;;;;;5002833;28;20026;-74
2021/11/11 05:36:55;;;;;;;31.17;15.25;;;;;;;;;;5001352;28;20457;-74
2021/11/11 05:39:21;;;;;;;27.42;15.75;;;;;;;;;;4999842;28;20515;-74
2021/11/11 05:41:47;;;;;;;29.15;13.82;;;;;;;;;;5000667;28;20058;-74
2021/11/11 05:44:13;;;;;;;32.08;14.90;;;;;;;;;;5002443;28;20069;-74
2021/11/11 05:46:40;;;;;;;30.40;15.02;;;;;;;;;;5000266;28;20076;-74
2021/11/11 05:49:06;;;;;;;32.53;14.35;;;;;;;;;;5006108;28;20029;-74
2021/11/11 05:51:31;;;;;;;34.08;16.38;;;;;;;;;;5002670;28;20076;-74
2021/11/11 05:53:57;;;;;;;36.40;14.63;;;;;;;;;;5002136;28;20446;-74
2021/11/11 05:56:23;;;;;;;33.17;14.50;;;;;;;;;;4999962;28;20049;-74
2021/11/11 05:58:49;;;;;;;35.20;15.50;;;;;;;;;;4999844;28;20272;-74
2021/11/11 06:01:15;;;;;;;34.10;14.95;;;;;;;;;;5006303;28;20030;-74
2021/11/11 06:03:41;;;;;;;31.73;14.82;;;;;;;;;;5003615;28;20030;-74
2021/11/11 06:06:07;;;;;;;34.22;14.15;;;;;;;;;;5004650;28;20037;-74
2021/11/11 06:08:33;;;;;;;33.90;16.48;;;;;;;;;;5002443;28;20038;-74
2021/11/11 06:10:59;;;;;;;38.47;17.17;;;;;;;;;;4998385;28;20109;-74
2021/11/11 06:13:26;;;;;;;31.40;15.10;;;;;;;;;;4992796;28;20019;-74
2021/11/11 06:15:52;;;;;;;32.80;15.52;;;;;;;;;;4995480;28;20105;-74
2021/11/11 06:18:20;;;;;;;40.33;17.08;;;;;;;;;;5007456;28;20037;-74
2021/11/11 06:20:49;;;;;;;36.85;15.25;;;;;;;;;;5005640;28;20302;-74
2021/11/11 06:23:15;;;;;;;32.10;15.60;;;;;;;;;;4999714;28;20030;-74
2021/11/11 06:25:41;;;;;;;28.77;14.30;;;;;;;;;;5003118;28;20432;-74
2021/11/11 06:28:08;;;;;;;40.10;15.50;;;;;;;;;;5007656;28;20055;-73
2021/11/11 06:30:34;;;;;;;34.17;16.02;;;;;;;;;;4999944;28;20482;-74
2021/11/11 06:33:00;;;;;;;38.03;15.40;;;;;;;;;;5001115;28;20534;-74
2021/11/11 06:35:27;;;;;;;33.72;15.07;;;;;;;;;;5010495;28;20079;-73
2021/11/11 06:37:53;;;;;;;34.50;15.07;;;;;;;;;;5002546;28;20030;-74
2021/11/11 06:40:19;;;;;;;33.53;15.82;;;;;;;;;;5003935;28;20561;-74
2021/11/11 06:42:45;;;;;;;35.95;15.30;;;;;;;;;;5006321;28;20045;-74
2021/11/11 06:45:12;;;;;;;34.92;16.83;;;;;;;;;;5002136;28;20101;-74
2021/11/11 06:47:39;;;;;;;38.33;17.02;;;;;;;;;;5022785;28;20026;-74
2021/11/11 06:50:05;;;;;;;43.05;16.90;;;;;;;;;;4998601;28;20364;-75
2021/11/11 06:52:31;;;;;;;31.88;15.40;;;;;;;;;;5009241;28;20034;-74
2021/11/11 06:54:57;;;;;;;35.28;16.73;;;;;;;;;;5004879;28;20713;-74
2021/11/11 06:57:23;;;;;;;38.45;18.73;;;;;;;;;;4996891;28;20372;-74
2021/11/11 06:59:49;;;;;;;37.35;18.48;;;;;;;;;;5009124;28;20069;-74
2021/11/11 07:02:15;;;;;;;38.40;17.10;;;;;;;;;;5010371;28;20026;-74
2021/11/11 07:04:42;;;;;;;35.90;15.77;;;;;;;;;;5009630;28;20040;-74
2021/11/11 07:07:08;;;;;;;45.83;17.20;;;;;;;;;;5005370;28;20045;-74
2021/11/11 07:09:34;;;;;;;36.80;15.85;;;;;;;;;;5009912;28;20076;-74
2021/11/11 07:12:00;;;;;;;33.88;18.40;;;;;;;;;;5009045;28;20417;-75
2021/11/11 07:14:26;;;;;;;35.17;17.58;;;;;;;;;;5008766;28;20022;-73
2021/11/11 07:16:52;;;;;;;33.47;15.50;;;;;;;;;;5001816;28;20025;-74
2021/11/11 07:19:18;;;;;;;37.97;16.55;;;;;;;;;;5000281;28;20037;-74
2021/11/11 07:21:44;;;;;;;31.80;16.67;;;;;;;;;;5001420;28;20072;-74
2021/11/11 07:24:10;;;;;;;43.13;17.83;;;;;;;;;;5009457;28;20029;-73
2021/11/11 07:26:36;;;;;;;32.00;16.08;;;;;;;;;;5007889;28;20034;-73
2021/11/11 07:29:02;;;;;;;34.83;16.10;;;;;;;;;;5009743;28;20494;-74
2021/11/11 07:31:28;;;;;;;33.78;16.70;;;;;;;;;;5002682;28;20036;-74
2021/11/11 07:33:54;;;;;;;31.77;17.38;;;;;;;;;;5009769;28;20033;-74
2021/11/11 07:36:20;;;;;;;35.97;17.40;;;;;;;;;;5009345;28;20026;-74
2021/11/11 07:38:46;;;;;;;38.28;18.67;;;;;;;;;;5009528;28;20037;-74
2021/11/11 07:41:12;;;;;;;46.30;18.95;;;;;;;;;;5006319;28;20448;-74
2021/11/11 07:43:38;;;;;;;44.30;19.42;;;;;;;;;;5010145;28;20026;-74
2021/11/11 07:46:06;;;;;;;38.17;19.75;;;;;;;;;;5011966;28;20038;-74
2021/11/11 07:48:32;;;;;;;41.08;17.70;;;;;;;;;;5010964;28;20100;-74
2021/11/11 07:50:59;;;;;;;40.17;18.48;;;;;;;;;;5008920;28;20026;-74
2021/11/11 07:53:26;;;;;;;40.90;18.55;;;;;;;;;;5011635;28;20018;-74
2021/11/11 07:55:52;;;;;;;37.05;18.08;;;;;;;;;;5014080;28;20026;-74
2021/11/11 07:58:18;;;;;;;39.33;18.23;;;;;;;;;;5003097;28;20035;-75
2021/11/11 08:00:44;;;;;;;38.78;19.38;;;;;;;;;;5006076;28;20030;-74
2021/11/11 08:03:12;;;;;;;43.80;18.85;;;;;;;;;;5007595;28;20036;-74
2021/11/11 08:05:38;;;;;;;35.65;18.52;;;;;;;;;;5001901;28;20029;-74
2021/11/11 08:08:05;;;;;;;35.55;19.42;;;;;;;;;;5024791;28;20477;-74
2021/11/11 08:10:31;;;;;;;43.75;19.67;;;;;;;;;;5010025;28;20481;-74
2021/11/11 08:12:57;;;;;;;39.80;19.95;;;;;;;;;;5011163;28;20026;-74
2021/11/11 08:15:23;;;;;;;50.53;19.98;;;;;;;;;;5009555;28;20225;-74
2021/11/11 08:17:49;;;;;;;41.65;20.40;;;;;;;;;;5011592;28;20018;-74
2021/11/11 08:20:16;;;;;;;44.67;20.65;;;;;;;;;;5012532;28;20529;-75
2021/11/11 08:22:42;;;;;;;46.28;20.75;;;;;;;;;;5009530;28;20028;-74
2021/11/11 08:25:09;;;;;;;44.28;19.70;;;;;;;;;;5012433;28;20081;-74
2021/11/11 08:27:36;;;;;;;42.58;19.65;;;;;;;;;;5011326;28;20487;-74
2021/11/11 08:30:03;;;;;;;39.10;18.85;;;;;;;;;;5012652;28;20033;-74
2021/11/11 08:32:29;;;;;;;43.67;20.27;;;;;;;;;;5026036;28;20445;-73
2021/11/11 08:34:55;;;;;;;42.60;20.88;;;;;;;;;;5012592;28;20018;-74
2021/11/11 08:37:21;;;;;;;44.28;20.17;;;;;;;;;;5008193;28;20022;-74
2021/11/11 08:39:48;;;;;;;45.50;21.35;;;;;;;;;;5014564;28;20021;-73
2021/11/11 08:42:14;;;;;;;42.67;20.42;;;;;;;;;;5009593;28;20034;-73
2021/11/11 08:44:45;;;;;;;42.72;20.08;;;;;;;;;;5006933;28;20113;-73
2021/11/11 08:47:12;;;;;;;47.40;20.63;;;;;;;;;;5009402;28;20164;-73
2021/11/11 08:49:38;;;;;;;43.35;20.75;;;;;;;;;;5023415;28;20022;-74
2021/11/11 08:52:05;;;;;;;46.35;21.42;;;;;;;;;;5017517;28;20033;-74
2021/11/11 08:54:31;;;;;;;47.17;23.30;;;;;;;;;;5023923;28;20038;-74
2021/11/11 08:56:57;;;;;;;41.92;20.95;;;;;;;;;;5010379;28;20140;-74
2021/11/11 08:59:24;;;;;;;39.28;20.33;;;;;;;;;;5008022;28;20399;-73
2021/11/11 09:01:51;;;;;;;48.28;21.27;;;;;;;;;;5012568;28;20418;-75
2021/11/11 09:04:18;;;;;;;49.00;24.55;;;;;;;;;;5015415;28;20077;-74
2021/11/11 09:06:44;;;;;;;50.10;22.70;;;;;;;;;;5009900;28;20030;-74
2021/11/11 09:09:11;;;;;;;46.83;20.77;;;;;;;;;;5008259;28;20032;-74
2021/11/11 09:11:37;;;;;;;44.05;21.15;;;;;;;;;;5026544;28;20034;-75
2021/11/11 09:14:04;;;;;;;43.83;22.40;;;;;;;;;;5011303;28;20057;-75
2021/11/11 09:16:30;;;;;;;49.13;22.50;;;;;;;;;;5009675;28;20040;-74
2021/11/11 09:18:56;;;;;;;53.72;23.17;;;;;;;;;;5012213;28;20046;-74
2021/11/11 09:21:22;;;;;;;47.03;22.45;;;;;;;;;;5007563;28;20026;-74
2021/11/11 09:23:50;;;;;;;49.78;24.20;;;;;;;;;;5010393;28;20033;-74
2021/11/11 09:26:16;;;;;;;46.30;23.50;;;;;;;;;;5010606;28;20021;-74
2021/11/11 09:28:42;;;;;;;47.17;23.27;;;;;;;;;;5011076;28;20026;-74
2021/11/11 09:31:10;;;;;;;57.70;25.52;;;;;;;;;;5008204;28;20489;-74
2021/11/11 09:33:36;;;;;;;50.35;23.08;;;;;;;;;;5009475;28;20026;-74
2021/11/11 09:36:02;;;;;;;49.03;24.17;;;;;;;;;;5017276;28;20474;-74
2021/11/11 09:38:28;;;;;;;51.83;23.58;;;;;;;;;;5009744;28;20022;-74
2021/11/11 09:40:55;;;;;;;49.30;25.35;;;;;;;;;;5019523;28;20044;-74
2021/11/11 09:43:21;;;;;;;45.13;23.58;;;;;;;;;;5011350;28;20414;-74
2021/11/11 09:45:48;;;;;;;51.47;25.08;;;;;;;;;;5009458;28;20029;-74
2021/11/11 09:48:15;;;;;;;54.05;26.17;;;;;;;;;;5009221;28;20029;-74
2021/11/11 09:50:41;;;;;;;51.08;24.90;;;;;;;;;;5016758;28;20033;-74
2021/11/11 09:53:13;;;;;;;52.80;24.52;;;;;;;;;;5012753;28;20014;-74
2021/11/11 09:58:46;;;;;;;46.08;25.77;;;;;;;;;;5010053;28;20545;-73
2021/11/11 10:01:18;;;;;;;49.88;25.13;;;;;;;;;;5008281;28;20479;-74
2021/11/11 10:03:46;;;;;;;52.53;25.25;;;;;;;;;;5020403;28;20054;-74
2021/11/11 10:06:13;;;;;;;52.40;25.88;;;;;;;;;;5008798;28;20049;-75
2021/11/11 10:08:40;;;;;;;53.97;27.90;;;;;;;;;;5023823;28;20081;-73
2021/11/11 10:11:14;;;;;;;58.05;28.33;;;;;;;;;;5009579;28;20032;-74
2021/11/11 10:13:40;;;;;;;55.65;28.55;;;;;;;;;;5002700;28;20037;-75
2021/11/11 10:16:06;;;;;;;57.40;27.35;;;;;;;;;;5008337;28;20018;-75
2021/11/11 10:18:52;;;;;;;59.30;28.83;;;;;;;;;;5023247;28;20468;-75
2021/11/11 10:21:30;;;;;;;56.55;28.08;;;;;;;;;;5004694;28;20034;-74
2021/11/11 10:23:59;;;;;;;47.00;25.45;;;;;;;;;;5008900;28;20382;-75
2021/11/11 10:26:33;;;;;;;55.80;27.13;;;;;;;;;;5017989;28;20026;-75
2021/11/11 10:28:59;;;;;;;49.33;24.73;;;;;;;;;;5005982;28;20084;-75
2021/11/11 10:31:25;;;;;;;49.22;25.25;;;;;;;;;;5005483;28;20025;-74
2021/11/11 10:34:10;;;;;;;47.72;25.48;;;;;;;;;;5004801;28;20050;-74
2021/11/11 10:36:39;;;;;;;45.88;24.70;;;;;;;;;;5004200;28;20096;-74
2021/11/11 10:39:10;;;;;;;48.60;25.25;;;;;;;;;;4996811;28;20034;-74
2021/11/11 10:41:35;;;;;;;50.80;27.90;;;;;;;;;;5003328;28;20057;-74
2021/11/11 10:44:17;;;;;;;46.85;24.17;;;;;;;;;;4998740;28;20030;-74
2021/11/11 10:46:44;;;;;;;50.03;25.60;;;;;;;;;;5001086;28;20062;-74
2021/11/11 10:49:20;;;;;;;50.83;25.70;;;;;;;;;;5004265;28;20037;-74
2021/11/11 10:51:46;;;;;;;47.35;25.70;;;;;;;;;;4999467;28;20368;-73
2021/11/11 10:54:12;;;;;;;43.47;25.05;;;;;;;;;;5004832;28;20124;-73
2021/11/11 10:56:43;;;;;;;58.40;27.15;;;;;;;;;;4992686;28;20456;-73
2021/11/11 10:59:13;;;;;;;44.50;25.27;;;;;;;;;;4998747;28;20096;-73
2021/11/11 11:01:39;;;;;;;49.80;25.17;;;;;;;;;;4997645;28;20148;-73
2021/11/11 11:04:05;;;;;;;47.22;24.95;;;;;;;;;;5009791;28;20502;-73
2021/11/11 11:06:33;;;;;;;51.72;25.52;;;;;;;;;;4999433;28;20109;-73
2021/11/11 11:08:59;;;;;;;46.08;25.30;;;;;;;;;;4994246;28;20092;-73
2021/11/11 11:11:30;;;;;;;48.00;24.55;;;;;;;;;;5005229;28;20050;-75
2021/11/11 11:14:00;;;;;;;49.85;26.83;;;;;;;;;;5005897;28;20434;-74
2021/11/11 11:16:28;;;;;;;47.78;26.58;;;;;;;;;;5023120;28;20449;-74
2021/11/11 11:18:59;;;;;;;48.08;27.00;;;;;;;;;;5006621;28;20034;-74
2021/11/11 11:21:27;;;;;;;50.70;26.10;;;;;;;;;;5005904;28;20030;-75
2021/11/11 11:23:59;;;;;;;52.13;27.08;;;;;;;;;;5008463;28;20049;-74
2021/11/11 11:26:26;;;;;;;57.35;28.20;;;;;;;;;;5005881;28;20030;-74
2021/11/11 11:29:01;;;;;;;63.03;28.65;;;;;;;;;;5007524;28;20074;-74
2021/11/11 11:31:27;;;;;;;67.38;30.90;;;;;;;;;;5002547;28;20095;-74
2021/11/11 11:33:54;;;;;;;69.95;31.52;;;;;;;;;;5009368;28;20029;-74
2021/11/11 11:36:30;;;;;;;67.90;29.13;;;;;;;;;;5008296;28;20021;-74
2021/11/11 11:38:56;;;;;;;65.47;31.00;;;;;;;;;;5009314;28;20030;-74
2021/11/11 11:41:27;;;;;;;70.05;29.85;;;;;;;;;;5008560;28;20038;-74
2021/11/11 11:43:53;;;;;;;62.50;27.67;;;;;;;;;;5018786;28;20030;-74
2021/11/11 11:46:23;;;;;;;72.70;31.48;;;;;;;;;;5006675;28;20060;-74
2021/11/11 11:48:49;;;;;;;69.03;29.20;;;;;;;;;;5008422;28;20104;-74
2021/11/11 11:51:18;;;;;;;66.13;29.15;;;;;;;;;;5000237;28;20041;-75
2021/11/11 11:53:47;;;;;;;61.42;28.23;;;;;;;;;;5017289;28;20037;-74
2021/11/11 11:56:26;;;;;;;60.13;29.08;;;;;;;;;;5007359;28;20061;-74
2021/11/11 11:59:00;;;;;;;60.70;29.27;;;;;;;;;;5002185;28;20113;-74
2021/11/11 12:04:43;;;;;;;56.17;28.88;;;;;;;;;;4949804;28;20557;-73
2021/11/11 12:15:08;;;;;;;67.40;31.48;;;;;;;;;;5008198;28;20033;-73
2021/11/11 12:39:47;;;;;;;60.03;31.05;;;;;;;;;;5010160;28;20091;-73
2021/11/11 12:42:16;;;;;;;62.97;29.58;;;;;;;;;;5006719;28;20084;-74
2021/11/11 12:45:04;;;;;;;56.67;27.00;;;;;;;;;;5009405;28;20030;-74
2021/11/11 12:47:56;;;;;;;63.13;31.70;;;;;;;;;;5007350;28;20261;-73
2021/11/11 12:50:31;;;;;;;68.35;31.35;;;;;;;;;;5011341;28;20121;-73
2021/11/11 12:53:09;;;;;;;60.92;30.45;;;;;;;;;;5009512;28;20030;-74
2021/11/11 12:55:36;;;;;;;55.55;28.27;;;;;;;;;;5011279;28;20026;-74
2021/11/11 12:58:03;;;;;;;62.28;30.13;;;;;;;;;;5010304;28;20045;-73
2021/11/11 13:00:35;;;;;;;54.45;27.52;;;;;;;;;;5008827;28;20022;-73
2021/11/11 13:03:01;;;;;;;55.78;28.13;;;;;;;;;;5012224;28;20454;-73
2021/11/11 13:05:47;;;;;;;60.05;30.77;;;;;;;;;;5010124;28;20011;-73
2021/11/11 13:08:36;;;;;;;61.70;29.17;;;;;;;;;;5003509;28;20028;-73
2021/11/11 13:11:04;;;;;;;53.38;27.48;;;;;;;;;;5004943;28;20065;-73
2021/11/11 13:13:31;;;;;;;58.42;27.73;;;;;;;;;;5008243;28;20407;-74
2021/11/11 13:16:00;;;;;;;66.70;29.77;;;;;;;;;;5005785;28;20041;-73
2021/11/11 13:18:49;;;;;;;51.50;26.15;;;;;;;;;;5005803;28;20074;-73
2021/11/11 13:21:23;;;;;;;59.60;26.92;;;;;;;;;;5007014;28;20251;-72
2021/11/11 13:24:08;;;;;;;53.65;26.83;;;;;;;;;;5011576;28;20032;-72
2021/11/11 14:00:23;;;;;;;60.08;24.92;;;;;;;;;;5024798;23;20057;-71
2021/11/11 14:28:07;;;;;;;68.35;25.90;;;;;;;;;;4991283;28;20061;-71
2021/11/11 15:57:18;;;;;;;67.68;29.45;;;;;;;;;;5001797;28;20083;-71
2021/11/11 16:00:11;;;;;;;69.18;30.17;;;;;;;;;;5006811;28;20030;-70
2021/11/11 16:27:17;;;;;;;71.95;31.27;;;;;;;;;;5002781;28;20056;-71
2021/11/11 16:29:43;;;;;;;77.22;30.25;;;;;;;;;;5001401;28;20399;-69
2021/11/11 16:32:09;;;;;;;75.25;31.70;;;;;;;;;;5002430;28;20030;-68
2021/11/11 16:34:34;;;;;;;81.03;32.22;;;;;;;;;;4999414;28;20109;-68
2021/11/11 16:37:03;;;;;;;88.38;33.00;;;;;;;;;;5000660;28;20014;-68
2021/11/11 16:39:29;;;;;;;84.85;34.25;;;;;;;;;;5008439;28;20141;-68
2021/11/11 16:41:55;;;;;;;75.35;33.80;;;;;;;;;;4983556;28;20021;-71
2021/11/11 16:44:21;;;;;;;82.70;33.55;;;;;;;;;;5001315;28;20041;-71
2021/11/11 16:46:48;;;;;;;79.18;33.40;;;;;;;;;;5006250;28;20034;-71
2021/11/11 16:49:14;;;;;;;81.75;32.72;;;;;;;;;;4985403;28;20684;-71
2021/11/11 16:51:40;;;;;;;90.32;35.47;;;;;;;;;;5007271;28;20034;-71
2021/11/11 16:54:07;;;;;;;76.05;33.15;;;;;;;;;;4993022;28;20399;-71
2021/11/11 16:56:33;;;;;;;89.65;35.58;;;;;;;;;;4994714;28;20042;-71
2021/11/11 16:58:59;;;;;;;75.35;31.58;;;;;;;;;;4991101;28;20271;-71
2021/11/11 17:01:26;;;;;;;78.43;35.10;;;;;;;;;;4993937;28;20164;-71
2021/11/11 17:03:52;;;;;;;74.95;32.83;;;;;;;;;;4992122;28;20046;-70
2021/11/11 17:06:18;;;;;;;93.85;34.83;;;;;;;;;;4992012;28;20037;-71
2021/11/11 17:08:44;;;;;;;85.47;33.47;;;;;;;;;;4994122;28;20404;-71
2021/11/11 17:11:11;;;;;;;73.70;34.05;;;;;;;;;;4968544;28;20467;-71
2021/11/11 17:13:41;;;;;;;67.32;31.35;;;;;;;;;;4992119;28;20487;-71
2021/11/11 17:16:10;;;;;;;77.28;31.95;;;;;;;;;;4977691;28;20030;-71
2021/11/11 17:18:36;;;;;;;78.38;31.38;;;;;;;;;;4990524;28;20020;-71
2021/11/11 17:21:02;;;;;;;75.57;33.25;;;;;;;;;;4978160;28;20057;-71
2021/11/11 17:23:35;;;;;;;77.82;32.65;;;;;;;;;;4993805;28;20030;-71
2021/11/11 17:26:18;;;;;;;67.07;29.92;;;;;;;;;;4987587;28;20053;-71
2021/11/11 17:28:45;;;;;;;63.30;28.90;;;;;;;;;;5002418;28;20096;-71
2021/11/11 17:31:11;;;;;;;71.90;29.92;;;;;;;;;;4997770;28;20026;-71
2021/11/11 17:33:39;;;;;;;71.85;32.78;;;;;;;;;;5001070;28;20022;-71
2021/11/11 17:36:06;;;;;;;75.32;32.50;;;;;;;;;;5002370;28;20459;-71
2021/11/11 17:38:33;;;;;;;65.82;30.77;;;;;;;;;;5004417;28;20357;-71
2021/11/11 17:41:01;;;;;;;70.50;30.63;;;;;;;;;;4997894;28;20455;-71
2021/11/11 17:43:28;;;;;;;64.63;28.05;;;;;;;;;;4971619;28;20113;-71
2021/11/11 17:48:26;;;;;;;68.72;31.15;;;;;;;;;;4996808;28;20042;-71
2021/11/11 17:50:57;;;;;;;67.90;31.67;;;;;;;;;;4997484;28;20033;-71
2021/11/11 17:53:27;;;;;;;75.20;32.17;;;;;;;;;;5001323;28;20157;-71
2021/11/11 17:55:55;;;;;;;70.50;30.40;;;;;;;;;;5003192;28;20021;-71
2021/11/11 17:58:23;;;;;;;85.95;34.17;;;;;;;;;;5001083;28;20483;-72
2021/11/11 18:00:51;;;;;;;101.28;35.47;;;;;;;;;;4982352;28;20446;-71
2021/11/11 18:03:17;;;;;;;85.65;33.20;;;;;;;;;;4999230;28;20022;-71
2021/11/11 18:05:44;;;;;;;92.80;35.75;;;;;;;;;;5003365;28;20019;-71
2021/11/11 18:10:36;;;;;;;93.97;35.30;;;;;;;;;;5001985;28;20038;-71
2021/11/11 18:13:04;;;;;;;93.90;37.55;;;;;;;;;;4998255;28;20524;-69
2021/11/11 18:15:33;;;;;;;109.13;39.00;;;;;;;;;;4995211;28;20036;-69